createdAt,value
2022-12-13T00:02:03.761Z,99788.56
2022-12-13T00:04:32.968Z,99784.17
2022-12-13T00:07:02.052Z,99797.44
2022-12-13T00:09:31.075Z,99799.16
2022-12-13T00:12:00.160Z,99794.89
2022-12-13T00:14:32.839Z,99803.70
2022-12-13T00:17:02.021Z,99800.91
2022-12-13T00:19:31.222Z,99804.20
2022-12-13T00:22:00.216Z,99802.37
2022-12-13T00:24:29.175Z,99804.63
2022-12-13T00:26:58.245Z,99807.41
2022-12-13T00:29:27.200Z,99819.30
2022-12-13T00:32:00.425Z,99811.99
2022-12-13T00:34:27.350Z,99816.92
2022-12-13T00:36:59.258Z,99823.98
2022-12-13T00:39:28.712Z,99818.60
2022-12-13T00:41:57.953Z,99826.96
2022-12-13T00:44:27.014Z,99819.81
2022-12-13T00:46:56.768Z,99817.47
2022-12-13T00:49:26.112Z,99832.23
2022-12-13T00:51:55.178Z,99828.77
2022-12-13T00:54:24.199Z,99824.16
2022-12-13T00:56:53.445Z,99824.16
2022-12-13T00:59:22.506Z,99834.17
2022-12-13T01:01:51.690Z,99844.24
2022-12-13T01:04:20.799Z,99836.65
2022-12-13T01:06:51.499Z,99826.84
2022-12-13T01:09:31.336Z,99828.58
2022-12-13T01:12:02.138Z,99838.09
2022-12-13T01:14:32.480Z,99825.99
2022-12-13T01:17:01.498Z,99824.62
2022-12-13T01:19:31.150Z,99821.77
2022-12-13T01:22:02.724Z,99821.61
2022-12-13T01:24:33.116Z,99821.97
2022-12-13T01:27:02.549Z,99817.89
2022-12-13T01:29:31.599Z,99819.84
2022-12-13T01:32:00.636Z,99821.34
2022-12-13T01:34:29.589Z,99814.44
2022-12-13T01:36:59.019Z,99817.30
2022-12-13T01:39:29.228Z,99803.52
2022-12-13T01:42:00.067Z,99804.42
2022-12-13T01:45:06.422Z,99803.60
2022-12-13T01:47:41.352Z,99806.30
2022-12-13T01:50:13.770Z,99798.20
2022-12-13T01:52:44.198Z,99805.02
2022-12-13T01:55:15.826Z,99794.45
2022-12-13T01:57:47.563Z,99799.84
2022-12-13T02:00:18.033Z,99779.44
2022-12-13T02:02:50.055Z,99790.94
2022-12-13T02:05:38.605Z,99796.73
2022-12-13T02:08:09.385Z,99802.33
2022-12-13T02:10:39.011Z,99798.16
2022-12-13T02:13:07.979Z,99798.16
2022-12-13T02:16:01.030Z,99787.58
2022-12-13T02:18:47.932Z,99789.14
2022-12-13T02:21:44.286Z,99790.06
2022-12-13T02:24:22.297Z,99790.06
2022-12-13T02:27:12.289Z,99803.27
2022-12-13T02:29:53.067Z,99791.70
2022-12-13T02:32:52.254Z,99789.67
2022-12-13T02:35:24.172Z,99797.29
2022-12-13T02:37:56.006Z,99811.71
2022-12-13T02:40:33.653Z,99803.95
2022-12-13T02:43:21.285Z,99805.53
2022-12-13T02:45:53.822Z,99806.45
2022-12-13T02:48:28.833Z,99815.70
2022-12-13T02:51:00.178Z,99820.63
2022-12-13T02:53:30.714Z,99820.63
2022-12-13T02:56:01.317Z,99828.96
2022-12-13T02:58:33.253Z,99815.50
2022-12-13T03:01:27.881Z,99815.50
2022-12-13T03:03:55.275Z,99819.97
2022-12-13T03:06:38.895Z,99823.44
2022-12-13T03:09:28.738Z,99813.27
2022-12-13T03:12:27.544Z,99806.19
2022-12-13T03:15:05.300Z,99809.45
2022-12-13T03:17:37.186Z,99814.57
2022-12-13T03:20:12.667Z,99825.74
2022-12-13T03:22:38.921Z,99820.48
2022-12-13T03:25:08.450Z,99837.02
2022-12-13T03:27:37.492Z,99827.16
2022-12-13T03:30:07.117Z,99827.16
2022-12-13T03:32:36.148Z,99829.05
2022-12-13T03:35:05.386Z,99818.39
2022-12-13T03:37:36.102Z,99818.39
2022-12-13T03:40:05.775Z,99802.69
2022-12-13T03:42:35.237Z,99788.57
2022-12-13T03:45:04.343Z,99788.57
2022-12-13T03:47:33.555Z,99778.63
2022-12-13T03:50:26.826Z,99778.63
2022-12-13T03:52:33.271Z,99777.45
2022-12-13T03:55:02.335Z,99772.02
2022-12-13T03:57:31.287Z,99754.44
2022-12-13T04:00:00.281Z,99765.19
2022-12-13T04:02:31.563Z,99759.72
2022-12-13T04:05:00.683Z,99752.09
2022-12-13T04:07:34.212Z,99750.47
2022-12-13T04:10:01.692Z,99750.47
2022-12-13T04:12:48.833Z,99744.34
2022-12-13T04:15:18.312Z,99738.70
2022-12-13T04:17:51.251Z,99739.35
2022-12-13T04:20:18.168Z,99724.24
2022-12-13T04:22:47.168Z,99738.41
2022-12-13T04:25:16.532Z,99727.24
2022-12-13T04:27:45.824Z,99720.93
2022-12-13T04:30:14.812Z,99704.87
2022-12-13T04:32:43.967Z,99700.25
2022-12-13T04:35:13.219Z,99700.25
2022-12-13T04:37:43.454Z,99683.78
2022-12-13T04:40:13.598Z,99683.78
2022-12-13T04:42:44.564Z,99680.04
2022-12-13T04:45:18.749Z,99675.70
2022-12-13T04:47:47.761Z,99667.73
2022-12-13T04:50:17.093Z,99667.73
2022-12-13T04:52:46.129Z,99657.11
2022-12-13T04:55:15.437Z,99656.34
2022-12-13T04:57:44.698Z,99647.69
2022-12-13T05:00:15.002Z,99638.13
2022-12-13T05:02:44.257Z,99638.13
2022-12-13T05:05:15.440Z,99638.77
2022-12-13T05:07:44.695Z,99645.88
2022-12-13T05:10:15.661Z,99651.84
2022-12-13T05:12:44.822Z,99634.45
2022-12-13T05:15:14.443Z,99633.45
2022-12-13T05:17:43.638Z,99654.47
2022-12-13T05:20:13.087Z,99654.47
2022-12-13T05:22:42.047Z,99649.86
2022-12-13T05:25:11.280Z,99653.55
2022-12-13T05:27:40.373Z,99644.34
2022-12-13T05:30:10.461Z,99644.34
2022-12-13T05:32:43.692Z,99658.51
2022-12-13T05:35:10.675Z,99661.70
2022-12-13T05:37:39.625Z,99666.07
2022-12-13T05:40:10.153Z,99673.68
2022-12-13T05:42:39.959Z,99667.39
2022-12-13T05:45:09.981Z,99664.75
2022-12-13T05:47:39.012Z,99668.78
2022-12-13T05:50:08.454Z,99674.50
2022-12-13T05:52:37.777Z,99674.50
2022-12-13T05:55:07.693Z,99671.84
2022-12-13T05:57:37.080Z,99686.11
2022-12-13T06:00:30.106Z,99686.11
2022-12-13T06:02:44.140Z,99688.71
2022-12-13T06:05:14.004Z,99688.71
2022-12-13T06:07:43.421Z,99693.80
2022-12-13T06:10:12.597Z,99701.23
2022-12-13T06:12:43.502Z,99697.47
2022-12-13T06:15:21.767Z,99704.31
2022-12-13T06:17:43.453Z,99696.55
2022-12-13T06:20:23.410Z,99686.34
2022-12-13T06:22:43.903Z,99674.75
2022-12-13T06:25:31.041Z,99674.75
2022-12-13T06:27:43.500Z,99674.03
2022-12-13T06:30:13.180Z,99668.28
2022-12-13T06:32:44.079Z,99656.58
2022-12-13T06:35:28.191Z,99663.88
2022-12-13T06:37:43.855Z,99655.72
2022-12-13T06:40:13.510Z,99646.70
2022-12-13T06:42:42.465Z,99656.70
2022-12-13T06:45:11.777Z,99646.12
2022-12-13T06:47:40.859Z,99644.91
2022-12-13T06:50:10.179Z,99641.76
2022-12-13T06:52:39.163Z,99641.76
2022-12-13T06:55:08.769Z,99653.12
2022-12-13T06:57:37.760Z,99648.95
2022-12-13T07:00:09.891Z,99641.94
2022-12-13T07:02:39.106Z,99635.93
2022-12-13T07:05:09.124Z,99647.48
2022-12-13T07:07:38.089Z,99647.09
2022-12-13T07:10:07.825Z,99649.15
2022-12-13T07:12:38.368Z,99640.94
2022-12-13T07:15:08.268Z,99638.22
2022-12-13T07:17:37.363Z,99644.88
2022-12-13T07:20:08.824Z,99642.23
2022-12-13T07:22:45.178Z,99640.53
2022-12-13T07:25:26.724Z,99640.53
2022-12-13T07:27:41.407Z,99613.75
2022-12-13T07:30:11.388Z,99613.75
2022-12-13T07:32:40.342Z,99619.23
2022-12-13T07:35:09.710Z,99619.23
2022-12-13T07:37:38.920Z,99621.17
2022-12-13T07:40:08.795Z,99627.66
2022-12-13T07:42:37.875Z,99632.44
2022-12-13T07:45:07.506Z,99632.44
2022-12-13T07:47:38.123Z,99633.59
2022-12-13T07:50:07.771Z,99633.59
2022-12-13T07:52:38.583Z,99619.11
2022-12-13T07:55:09.322Z,99615.75
2022-12-13T07:57:38.413Z,99605.24
2022-12-13T08:00:08.107Z,99581.92
2022-12-13T08:02:37.177Z,99581.92
2022-12-13T08:05:25.784Z,99578.89
2022-12-13T08:07:37.469Z,99569.27
2022-12-13T08:10:06.891Z,99563.52
2022-12-13T08:12:35.930Z,99559.86
2022-12-13T08:15:09.428Z,99565.00
2022-12-13T08:17:36.122Z,99569.84
2022-12-13T08:20:06.133Z,99561.73
2022-12-13T08:22:36.267Z,99555.09
2022-12-13T08:25:06.750Z,99553.14
2022-12-13T08:27:36.301Z,99550.84
2022-12-13T08:30:07.623Z,99547.97
2022-12-13T08:32:36.672Z,99555.41
2022-12-13T08:35:06.133Z,99548.58
2022-12-13T08:37:35.153Z,99538.02
2022-12-13T08:40:06.086Z,99543.53
2022-12-13T08:42:35.048Z,99543.53
2022-12-13T08:45:05.669Z,99527.60
2022-12-13T08:47:41.317Z,99516.83
2022-12-13T08:50:06.217Z,99514.52
2022-12-13T08:52:39.353Z,99506.23
2022-12-13T08:55:08.404Z,99486.83
2022-12-13T08:57:41.456Z,99488.75
2022-12-13T09:00:13.467Z,99488.75
2022-12-13T09:02:42.487Z,99457.27
2022-12-13T09:05:13.191Z,99466.02
2022-12-13T09:07:44.410Z,99454.30
2022-12-13T09:10:26.637Z,99446.05
2022-12-13T09:12:44.629Z,99433.49
2022-12-13T09:15:22.209Z,99415.66
2022-12-13T09:17:44.373Z,99414.03
2022-12-13T09:20:28.469Z,99409.16
2022-12-13T09:22:45.773Z,99409.16
2022-12-13T09:25:15.122Z,99387.73
2022-12-13T09:27:45.463Z,99387.73
2022-12-13T09:30:15.764Z,99373.94
2022-12-13T09:32:46.517Z,99349.41
2022-12-13T09:35:15.473Z,99349.41
2022-12-13T09:37:46.256Z,99336.56
2022-12-13T09:40:25.713Z,99341.06
2022-12-13T09:43:12.385Z,99343.53
2022-12-13T09:45:31.907Z,99333.57
2022-12-13T09:48:04.831Z,99329.58
2022-12-13T09:50:38.561Z,99328.45
2022-12-13T09:53:11.892Z,99308.31
2022-12-13T09:55:42.118Z,99320.22
2022-12-13T09:58:16.964Z,99306.98
2022-12-13T10:00:48.514Z,99288.25
2022-12-13T10:03:20.714Z,99280.09
2022-12-13T10:06:00.910Z,99280.09
2022-12-13T10:08:33.280Z,99257.29
2022-12-13T10:11:02.236Z,99261.37
2022-12-13T10:13:53.875Z,99251.08
2022-12-13T10:16:40.764Z,99242.44
2022-12-13T10:19:28.966Z,99226.24
2022-12-13T10:21:53.616Z,99218.16
2022-12-13T10:24:34.595Z,99218.16
2022-12-13T10:27:13.748Z,99218.50
2022-12-13T10:30:06.660Z,99229.50
2022-12-13T10:32:56.735Z,99229.50
2022-12-13T10:35:31.426Z,99204.56
2022-12-13T10:38:06.217Z,99206.68
2022-12-13T10:40:48.011Z,99202.20
2022-12-13T10:43:22.683Z,99203.11
2022-12-13T10:46:00.907Z,99202.92
2022-12-13T10:48:42.182Z,99202.92
2022-12-13T10:51:14.436Z,99213.42
2022-12-13T10:53:55.471Z,99208.63
2022-12-13T10:56:26.731Z,99200.59
2022-12-13T10:59:17.525Z,99196.23
2022-12-13T11:01:46.397Z,99188.19
2022-12-13T11:04:34.102Z,99180.86
2022-12-13T11:07:22.323Z,99187.58
2022-12-13T11:09:52.768Z,99197.88
2022-12-13T11:12:28.042Z,99184.41
2022-12-13T11:15:02.832Z,99184.41
2022-12-13T11:17:34.972Z,99185.53
2022-12-13T11:20:06.825Z,99195.02
2022-12-13T11:22:40.237Z,99200.91
2022-12-13T11:25:12.068Z,99196.00
2022-12-13T11:27:44.526Z,99202.83
2022-12-13T11:30:33.103Z,99200.99
2022-12-13T11:33:05.003Z,99187.98
2022-12-13T11:35:36.915Z,99185.73
2022-12-13T11:38:27.514Z,99167.61
2022-12-13T11:41:04.189Z,99167.61
2022-12-13T11:43:38.978Z,99161.19
2022-12-13T11:46:16.594Z,99147.25
2022-12-13T11:48:48.557Z,99145.66
2022-12-13T11:51:21.047Z,99146.97
2022-12-13T11:53:56.461Z,99141.47
2022-12-13T11:56:30.821Z,99141.47
2022-12-13T11:59:16.152Z,99129.70
2022-12-13T12:01:44.767Z,99129.70
2022-12-13T12:04:34.493Z,99105.81
2022-12-13T12:07:36.453Z,99107.73
2022-12-13T12:09:54.483Z,99107.73
2022-12-13T12:12:26.350Z,99112.92
2022-12-13T12:15:05.855Z,99119.32
2022-12-13T12:17:37.748Z,99106.41
2022-12-13T12:20:03.561Z,99109.87
2022-12-13T12:22:59.629Z,99113.44
2022-12-13T12:25:43.509Z,99113.44
2022-12-13T12:28:17.834Z,99081.40
2022-12-13T12:30:55.537Z,99079.99
2022-12-13T12:33:45.721Z,99071.25
2022-12-13T12:36:29.683Z,99061.57
2022-12-13T12:39:27.215Z,99052.75
2022-12-13T12:42:22.156Z,99063.10
2022-12-13T12:44:54.074Z,99057.42
2022-12-13T12:50:32.738Z,99056.68
2022-12-13T12:53:07.724Z,99062.45
2022-12-13T12:55:57.637Z,99065.02
2022-12-13T12:58:32.205Z,99067.04
2022-12-13T13:01:28.676Z,99075.41
2022-12-13T13:04:01.867Z,99073.94
2022-12-13T13:06:42.366Z,99078.37
2022-12-13T13:09:14.556Z,99081.80
2022-12-13T13:11:46.400Z,99072.25
2022-12-13T13:14:36.808Z,99071.48
2022-12-13T13:17:20.763Z,99076.16
2022-12-13T13:19:52.967Z,99074.08
2022-12-13T13:22:32.375Z,99066.03
2022-12-13T13:25:16.825Z,99061.39
2022-12-13T13:27:47.613Z,99052.33
2022-12-13T13:30:25.947Z,99052.33
2022-12-13T13:32:58.135Z,99040.87
2022-12-13T13:35:38.619Z,99049.47
2022-12-13T13:38:19.375Z,99049.47
2022-12-13T13:40:48.435Z,99066.42
2022-12-13T13:43:20.452Z,99066.62
2022-12-13T13:45:55.063Z,99066.62
2022-12-13T13:48:57.502Z,99068.08
2022-12-13T13:52:23.815Z,99069.34
2022-12-13T13:55:00.614Z,99082.38
2022-12-13T13:58:08.726Z,99083.80
2022-12-13T14:00:32.895Z,99088.35
2022-12-13T14:03:34.464Z,99092.31
2022-12-13T14:06:23.123Z,99103.09
2022-12-13T14:09:28.383Z,99110.78
2022-12-13T14:12:18.657Z,99108.38
2022-12-13T14:15:08.596Z,99118.11
2022-12-13T14:17:55.657Z,99123.72
2022-12-13T14:20:36.649Z,99128.42
2022-12-13T14:23:14.489Z,99128.42
2022-12-13T14:25:57.516Z,99131.40
2022-12-13T14:28:56.778Z,99133.53
2022-12-13T14:31:32.238Z,99143.50
2022-12-13T14:34:03.187Z,99148.50
2022-12-13T14:36:35.715Z,99158.78
2022-12-13T14:39:16.308Z,99158.27
2022-12-13T14:41:49.747Z,99159.92
2022-12-13T14:44:26.181Z,99162.86
2022-12-13T14:47:03.973Z,99162.86
2022-12-13T14:49:38.587Z,99158.78
2022-12-13T14:52:25.959Z,99158.78
2022-12-13T14:54:59.842Z,99141.34
2022-12-13T14:57:32.200Z,99136.84
2022-12-13T15:00:03.875Z,99147.86
2022-12-13T15:02:35.301Z,99154.95
2022-12-13T15:05:06.877Z,99161.05
2022-12-13T15:07:41.562Z,99161.78
2022-12-13T15:10:32.974Z,99149.25
2022-12-13T15:13:02.059Z,99154.65
2022-12-13T15:15:33.535Z,99159.98
2022-12-13T15:18:20.372Z,99168.77
2022-12-13T15:20:51.708Z,99168.77
2022-12-13T15:23:26.823Z,99188.48
2022-12-13T15:26:13.877Z,99186.34
2022-12-13T15:28:47.469Z,99191.56
2022-12-13T15:31:17.106Z,99191.56
2022-12-13T15:33:48.678Z,99201.77
2022-12-13T15:36:25.152Z,99208.91
2022-12-13T15:39:02.862Z,99215.76
2022-12-13T15:41:36.388Z,99207.30
2022-12-13T15:44:08.251Z,99204.55
2022-12-13T15:46:38.811Z,99221.73
2022-12-13T15:49:10.636Z,99228.23
2022-12-13T15:51:57.624Z,99240.89
2022-12-13T15:54:28.229Z,99246.56
2022-12-13T15:57:20.456Z,99252.03
2022-12-13T15:59:49.444Z,99262.88
2022-12-13T16:02:21.304Z,99264.95
2022-12-13T16:04:51.337Z,99265.41
2022-12-13T16:07:26.460Z,99272.75
2022-12-13T16:09:56.687Z,99277.27
2022-12-13T16:12:28.792Z,99275.14
2022-12-13T16:15:20.268Z,99267.39
2022-12-13T16:17:55.646Z,99272.61
2022-12-13T16:20:27.961Z,99276.59
2022-12-13T16:23:00.003Z,99286.13
2022-12-13T16:25:27.642Z,99288.06
2022-12-13T16:27:57.705Z,99303.62
2022-12-13T16:30:29.501Z,99298.70
2022-12-13T16:35:29.075Z,99301.69
2022-12-13T16:37:59.016Z,99312.44
2022-12-13T16:40:33.611Z,99322.52
2022-12-13T16:43:05.144Z,99320.80
2022-12-13T16:45:42.993Z,99327.23
2022-12-13T16:48:14.392Z,99329.81
2022-12-13T16:50:45.471Z,99327.36
2022-12-13T16:53:17.562Z,99332.89
2022-12-13T16:55:58.425Z,99332.89
2022-12-13T16:58:20.924Z,99349.17
2022-12-13T17:00:49.985Z,99350.44
2022-12-13T17:03:20.579Z,99352.20
2022-12-13T17:05:50.013Z,99363.14
2022-12-13T17:08:20.780Z,99363.47
2022-12-13T17:10:58.222Z,99368.84
2022-12-13T17:13:21.033Z,99363.36
2022-12-13T17:15:59.083Z,99367.91
2022-12-13T17:18:20.677Z,99373.52
2022-12-13T17:20:58.148Z,99373.52
2022-12-13T17:23:20.454Z,99381.52
2022-12-13T17:25:58.439Z,99387.26
2022-12-13T17:28:20.338Z,99400.46
2022-12-13T17:30:49.285Z,99393.58
2022-12-13T17:33:19.884Z,99397.66
2022-12-13T17:35:48.862Z,99404.84
2022-12-13T17:38:17.873Z,99398.21
2022-12-13T17:40:47.533Z,99406.95
2022-12-13T17:43:31.460Z,99408.73
2022-12-13T17:45:48.556Z,99405.52
2022-12-13T17:48:17.613Z,99405.52
2022-12-13T17:50:46.551Z,99417.29
2022-12-13T17:53:15.601Z,99430.23
2022-12-13T17:55:45.566Z,99430.39
2022-12-13T17:58:14.521Z,99439.03
2022-12-13T18:00:43.456Z,99443.47
2022-12-13T18:03:12.425Z,99443.47
2022-12-13T18:05:41.393Z,99448.74
2022-12-13T18:08:10.394Z,99454.05
2022-12-13T18:10:39.422Z,99456.02
2022-12-13T18:13:08.405Z,99451.56
2022-12-13T18:15:37.528Z,99463.98
2022-12-13T18:18:11.636Z,99463.90
2022-12-13T18:20:40.020Z,99468.51
2022-12-13T18:23:09.097Z,99470.07
2022-12-13T18:25:38.186Z,99468.88
2022-12-13T18:28:09.526Z,99473.33
2022-12-13T18:30:39.759Z,99473.33
2022-12-13T18:33:08.851Z,99480.16
2022-12-13T18:35:37.839Z,99492.20
2022-12-13T18:38:06.890Z,99499.97
2022-12-13T18:40:35.898Z,99504.66
2022-12-13T18:43:04.994Z,99511.84
2022-12-13T18:45:34.061Z,99518.95
2022-12-13T18:48:02.969Z,99518.95
2022-12-13T18:50:31.939Z,99530.33
2022-12-13T18:53:01.021Z,99530.33
2022-12-13T18:55:31.051Z,99535.30
2022-12-13T18:58:00.037Z,99546.97
2022-12-13T19:00:29.994Z,99548.94
2022-12-13T19:02:59.441Z,99555.09
2022-12-13T19:05:28.779Z,99554.41
2022-12-13T19:07:57.747Z,99564.55
2022-12-13T19:10:26.914Z,99567.50
2022-12-13T19:12:55.918Z,99581.23
2022-12-13T19:15:24.885Z,99583.86
2022-12-13T19:17:53.964Z,99588.45
2022-12-13T19:20:23.217Z,99589.05
2022-12-13T19:22:52.226Z,99598.08
2022-12-13T19:25:23.985Z,99598.08
2022-12-13T19:27:54.522Z,99604.67
2022-12-13T19:30:24.005Z,99608.48
2022-12-13T19:32:53.272Z,99614.99
2022-12-13T19:35:22.228Z,99620.65
2022-12-13T19:37:51.210Z,99623.38
2022-12-13T19:40:20.195Z,99623.38
2022-12-13T19:42:49.168Z,99637.36
2022-12-13T19:45:18.118Z,99646.25
2022-12-13T19:47:48.795Z,99652.31
2022-12-13T19:50:18.074Z,99653.81
2022-12-13T19:52:47.040Z,99661.20
2022-12-13T19:55:16.014Z,99659.23
2022-12-13T19:57:45.060Z,99659.23
2022-12-13T20:00:15.211Z,99680.12
2022-12-13T20:02:44.274Z,99673.05
2022-12-13T20:05:13.491Z,99681.81
2022-12-13T20:07:42.684Z,99685.23
2022-12-13T20:10:12.651Z,99689.09
2022-12-13T20:12:41.648Z,99698.07
2022-12-13T20:15:11.372Z,99698.39
2022-12-13T20:17:40.326Z,99700.00
2022-12-13T20:20:09.767Z,99707.95
2022-12-13T20:22:38.779Z,99711.23
2022-12-13T20:25:08.889Z,99717.61
2022-12-13T20:27:37.848Z,99720.45
2022-12-13T20:30:07.456Z,99715.55
2022-12-13T20:32:36.623Z,99724.41
2022-12-13T20:35:06.311Z,99724.41
2022-12-13T20:37:35.290Z,99728.22
2022-12-13T20:40:04.271Z,99733.80
2022-12-13T20:42:34.493Z,99748.75
2022-12-13T20:45:04.682Z,99747.63
2022-12-13T20:47:37.687Z,99756.16
2022-12-13T20:50:04.327Z,99750.26
2022-12-13T20:52:33.313Z,99760.59
2022-12-13T20:55:02.381Z,99768.62
2022-12-13T20:57:31.442Z,99768.62
2022-12-13T21:00:00.968Z,99774.56
2022-12-13T21:02:29.995Z,99774.56
2022-12-13T21:04:58.994Z,99775.20
2022-12-13T21:07:48.383Z,99781.59
2022-12-13T21:10:16.374Z,99781.59
2022-12-13T21:12:45.360Z,99778.83
2022-12-13T21:15:14.347Z,99786.09
2022-12-13T21:17:43.552Z,99791.34
2022-12-13T21:20:12.587Z,99788.04
2022-12-13T21:22:41.624Z,99793.66
2022-12-13T21:25:11.035Z,99793.66
2022-12-13T21:27:40.239Z,99807.62
2022-12-13T21:30:10.184Z,99807.27
2022-12-13T21:32:39.164Z,99805.64
2022-12-13T21:35:09.657Z,99805.64
2022-12-13T21:37:39.008Z,99809.76
2022-12-13T21:40:08.817Z,99809.76
2022-12-13T21:42:37.863Z,99807.45
2022-12-13T21:45:07.595Z,99807.45
2022-12-13T21:47:36.468Z,99825.19
2022-12-13T21:50:05.731Z,99830.63
2022-12-13T21:52:34.668Z,99830.63
2022-12-13T21:55:30.447Z,99850.69
2022-12-13T21:57:52.360Z,99844.92
2022-12-13T22:00:21.660Z,99844.92
2022-12-13T22:02:50.626Z,99864.48
2022-12-13T22:05:19.825Z,99873.05
2022-12-13T22:07:48.880Z,99880.45
2022-12-13T22:10:18.059Z,99886.85
2022-12-13T22:12:47.007Z,99875.83
2022-12-13T22:15:17.482Z,99886.85
2022-12-13T22:17:46.490Z,99899.38
2022-12-13T22:20:16.628Z,99904.63
2022-12-13T22:22:47.689Z,99911.69
2022-12-13T22:25:16.652Z,99916.30
2022-12-13T22:27:45.623Z,99918.44
2022-12-13T22:30:14.779Z,99929.29
2022-12-13T22:32:43.759Z,99929.29
2022-12-13T22:35:12.878Z,99933.06
2022-12-13T22:37:41.800Z,99925.34
2022-12-13T22:40:11.936Z,99929.61
2022-12-13T22:42:41.034Z,99930.77
2022-12-13T22:45:10.609Z,99935.51
2022-12-13T22:47:39.519Z,99945.89
2022-12-13T22:50:09.311Z,99948.69
2022-12-13T22:52:38.329Z,99959.52
2022-12-13T22:55:08.224Z,99960.34
2022-12-13T22:57:37.238Z,99959.04
2022-12-13T23:00:09.444Z,99962.02
2022-12-13T23:02:39.143Z,99962.02
2022-12-13T23:05:08.329Z,99976.27
2022-12-13T23:07:37.666Z,99983.66
2022-12-13T23:10:08.955Z,99983.66
2022-12-13T23:12:55.977Z,99997.81
2022-12-13T23:15:24.958Z,99997.81
2022-12-13T23:17:53.918Z,100021.05
2022-12-13T23:20:22.943Z,100015.98
2022-12-13T23:22:51.832Z,100015.43
2022-12-13T23:25:21.012Z,100019.05
2022-12-13T23:27:49.921Z,100032.06
2022-12-13T23:30:18.925Z,100035.16
2022-12-13T23:32:48.005Z,100038.48
2022-12-13T23:35:17.067Z,100043.91
2022-12-13T23:37:46.073Z,100043.98
2022-12-13T23:40:16.745Z,100056.46
2022-12-13T23:42:45.740Z,100059.09
2022-12-13T23:45:14.817Z,100067.13
2022-12-13T23:47:43.772Z,100067.09
2022-12-13T23:50:12.827Z,100067.09
2022-12-13T23:52:41.779Z,100088.83
2022-12-13T23:55:11.083Z,100091.08
2022-12-13T23:57:40.054Z,100093.47
